sensor_id;sensor_type;location;lat;lon;timestamp;P1;durP1;ratioP1;P2;durP2;ratioP2
7080;SDS011;3582;51.506;11.948;2022-11-04T00:01:16;14.77;;;10.52;;
7080;SDS011;3582;51.506;11.948;2022-11-04T00:03:42;12.40;;;9.68;;
7080;SDS011;3582;51.506;11.948;2022-11-04T00:06:08;13.50;;;10.33;;
7080;SDS011;3582;51.506;11.948;2022-11-04T00:08:34;12.65;;;8.43;;
7080;SDS011;3582;51.506;11.948;2022-11-04T00:11:01;12.75;;;9.25;;
7080;SDS011;3582;51.506;11.948;2022-11-04T00:13:46;11.23;;;9.50;;
7080;SDS011;3582;51.506;11.948;2022-11-04T00:16:12;14.65;;;9.77;;
7080;SDS011;3582;51.506;11.948;2022-11-04T00:18:58;13.80;;;9.43;;
7080;SDS011;3582;51.506;11.948;2022-11-04T00:21:24;15.07;;;9.57;;
7080;SDS011;3582;51.506;11.948;2022-11-04T00:24:10;10.52;;;9.10;;
7080;SDS011;3582;51.506;11.948;2022-11-04T00:26:55;12.43;;;9.93;;
7080;SDS011;3582;51.506;11.948;2022-11-04T00:29:40;11.50;;;9.57;;
7080;SDS011;3582;51.506;11.948;2022-11-04T00:32:06;10.95;;;9.80;;
7080;SDS011;3582;51.506;11.948;2022-11-04T00:34:51;10.45;;;9.32;;
7080;SDS011;3582;51.506;11.948;2022-11-04T00:37:17;20.40;;;9.75;;
7080;SDS011;3582;51.506;11.948;2022-11-04T00:39:43;11.35;;;9.45;;
7080;SDS011;3582;51.506;11.948;2022-11-04T00:42:09;11.77;;;9.77;;
7080;SDS011;3582;51.506;11.948;2022-11-04T00:44:35;11.10;;;9.83;;
7080;SDS011;3582;51.506;11.948;2022-11-04T00:47:01;13.48;;;9.30;;
7080;SDS011;3582;51.506;11.948;2022-11-04T00:49:27;15.05;;;11.30;;
7080;SDS011;3582;51.506;11.948;2022-11-04T00:51:53;14.00;;;11.25;;
7080;SDS011;3582;51.506;11.948;2022-11-04T00:54:19;12.30;;;10.57;;
7080;SDS011;3582;51.506;11.948;2022-11-04T00:56:45;13.32;;;10.13;;
7080;SDS011;3582;51.506;11.948;2022-11-04T00:59:13;18.60;;;9.88;;
7080;SDS011;3582;51.506;11.948;2022-11-04T01:01:39;14.52;;;10.63;;
7080;SDS011;3582;51.506;11.948;2022-11-04T01:04:05;12.80;;;9.68;;
7080;SDS011;3582;51.506;11.948;2022-11-04T01:06:31;13.67;;;10.47;;
7080;SDS011;3582;51.506;11.948;2022-11-04T01:09:01;10.15;;;9.15;;
7080;SDS011;3582;51.506;11.948;2022-11-04T01:11:27;11.70;;;9.15;;
7080;SDS011;3582;51.506;11.948;2022-11-04T01:13:54;13.07;;;10.57;;
7080;SDS011;3582;51.506;11.948;2022-11-04T01:16:21;11.63;;;9.57;;
7080;SDS011;3582;51.506;11.948;2022-11-04T01:18:47;12.60;;;9.80;;
7080;SDS011;3582;51.506;11.948;2022-11-04T01:21:14;16.40;;;11.05;;
7080;SDS011;3582;51.506;11.948;2022-11-04T01:23:40;12.35;;;10.43;;
7080;SDS011;3582;51.506;11.948;2022-11-04T01:26:08;15.32;;;10.40;;
7080;SDS011;3582;51.506;11.948;2022-11-04T01:28:34;15.57;;;9.85;;
7080;SDS011;3582;51.506;11.948;2022-11-04T01:31:07;12.95;;;9.48;;
7080;SDS011;3582;51.506;11.948;2022-11-04T01:33:34;10.63;;;9.57;;
7080;SDS011;3582;51.506;11.948;2022-11-04T01:36:01;16.17;;;10.10;;
7080;SDS011;3582;51.506;11.948;2022-11-04T01:38:27;17.63;;;10.27;;
7080;SDS011;3582;51.506;11.948;2022-11-04T01:40:53;18.70;;;10.30;;
7080;SDS011;3582;51.506;11.948;2022-11-04T01:43:19;10.30;;;9.20;;
7080;SDS011;3582;51.506;11.948;2022-11-04T01:45:47;10.25;;;9.25;;
7080;SDS011;3582;51.506;11.948;2022-11-04T01:48:21;12.60;;;9.70;;
7080;SDS011;3582;51.506;11.948;2022-11-04T01:50:48;10.07;;;8.88;;
7080;SDS011;3582;51.506;11.948;2022-11-04T01:53:16;10.45;;;8.82;;
7080;SDS011;3582;51.506;11.948;2022-11-04T01:55:44;13.55;;;10.65;;
7080;SDS011;3582;51.506;11.948;2022-11-04T01:58:12;12.45;;;10.15;;
7080;SDS011;3582;51.506;11.948;2022-11-04T02:00:40;9.38;;;8.45;;
7080;SDS011;3582;51.506;11.948;2022-11-04T02:03:07;13.70;;;9.43;;
7080;SDS011;3582;51.506;11.948;2022-11-04T02:05:34;13.40;;;10.70;;
7080;SDS011;3582;51.506;11.948;2022-11-04T02:08:01;12.27;;;9.95;;
7080;SDS011;3582;51.506;11.948;2022-11-04T02:10:28;10.25;;;8.27;;
7080;SDS011;3582;51.506;11.948;2022-11-04T02:12:54;12.73;;;9.45;;
7080;SDS011;3582;51.506;11.948;2022-11-04T02:17:53;11.30;;;10.10;;
7080;SDS011;3582;51.506;11.948;2022-11-04T02:23:13;13.90;;;8.90;;
7080;SDS011;3582;51.506;11.948;2022-11-04T02:28:25;16.27;;;9.85;;
7080;SDS011;3582;51.506;11.948;2022-11-04T02:31:02;13.35;;;10.00;;
7080;SDS011;3582;51.506;11.948;2022-11-04T02:33:33;12.73;;;10.00;;
7080;SDS011;3582;51.506;11.948;2022-11-04T02:36:09;10.68;;;9.45;;
7080;SDS011;3582;51.506;11.948;2022-11-04T02:43:40;11.10;;;9.57;;
7080;SDS011;3582;51.506;11.948;2022-11-04T02:46:15;12.45;;;9.50;;
7080;SDS011;3582;51.506;11.948;2022-11-04T02:51:24;15.90;;;10.07;;
7080;SDS011;3582;51.506;11.948;2022-11-04T02:56:18;15.93;;;10.30;;
7080;SDS011;3582;51.506;11.948;2022-11-04T02:58:47;11.30;;;10.20;;
7080;SDS011;3582;51.506;11.948;2022-11-04T03:01:17;13.38;;;10.98;;
7080;SDS011;3582;51.506;11.948;2022-11-04T03:03:56;13.30;;;9.95;;
7080;SDS011;3582;51.506;11.948;2022-11-04T03:06:25;10.13;;;9.13;;
7080;SDS011;3582;51.506;11.948;2022-11-04T03:08:52;11.63;;;9.40;;
7080;SDS011;3582;51.506;11.948;2022-11-04T03:11:21;12.98;;;9.77;;
7080;SDS011;3582;51.506;11.948;2022-11-04T03:13:49;16.42;;;9.50;;
7080;SDS011;3582;51.506;11.948;2022-11-04T03:16:26;12.93;;;9.88;;
7080;SDS011;3582;51.506;11.948;2022-11-04T03:21:35;14.27;;;10.40;;
7080;SDS011;3582;51.506;11.948;2022-11-04T03:24:02;12.90;;;8.93;;
7080;SDS011;3582;51.506;11.948;2022-11-04T03:34:18;15.07;;;9.75;;
7080;SDS011;3582;51.506;11.948;2022-11-04T03:36:44;14.93;;;10.63;;
7080;SDS011;3582;51.506;11.948;2022-11-04T03:39:10;13.60;;;9.35;;
7080;SDS011;3582;51.506;11.948;2022-11-04T03:41:38;13.03;;;11.13;;
7080;SDS011;3582;51.506;11.948;2022-11-04T03:44:06;14.75;;;10.98;;
7080;SDS011;3582;51.506;11.948;2022-11-04T03:46:32;20.40;;;12.50;;
7080;SDS011;3582;51.506;11.948;2022-11-04T03:48:58;12.38;;;11.05;;
7080;SDS011;3582;51.506;11.948;2022-11-04T03:51:25;14.57;;;11.23;;
7080;SDS011;3582;51.506;11.948;2022-11-04T03:53:51;14.77;;;10.57;;
7080;SDS011;3582;51.506;11.948;2022-11-04T03:58:51;12.17;;;10.77;;
7080;SDS011;3582;51.506;11.948;2022-11-04T04:01:25;14.52;;;10.45;;
7080;SDS011;3582;51.506;11.948;2022-11-04T04:03:55;14.25;;;9.60;;
7080;SDS011;3582;51.506;11.948;2022-11-04T04:06:24;14.73;;;11.25;;
7080;SDS011;3582;51.506;11.948;2022-11-04T04:08:52;11.82;;;10.00;;
7080;SDS011;3582;51.506;11.948;2022-11-04T04:11:39;15.52;;;10.93;;
7080;SDS011;3582;51.506;11.948;2022-11-04T04:14:12;15.68;;;11.10;;
7080;SDS011;3582;51.506;11.948;2022-11-04T04:16:58;17.98;;;11.23;;
7080;SDS011;3582;51.506;11.948;2022-11-04T04:19:25;13.57;;;10.50;;
7080;SDS011;3582;51.506;11.948;2022-11-04T04:21:52;20.13;;;16.35;;
7080;SDS011;3582;51.506;11.948;2022-11-04T04:24:22;16.23;;;11.60;;
7080;SDS011;3582;51.506;11.948;2022-11-04T04:27:09;11.45;;;10.25;;
7080;SDS011;3582;51.506;11.948;2022-11-04T04:29:54;15.35;;;10.80;;
7080;SDS011;3582;51.506;11.948;2022-11-04T04:32:20;17.08;;;12.52;;
7080;SDS011;3582;51.506;11.948;2022-11-04T04:34:47;11.32;;;9.77;;
7080;SDS011;3582;51.506;11.948;2022-11-04T04:37:20;14.93;;;11.67;;
7080;SDS011;3582;51.506;11.948;2022-11-04T04:39:51;25.10;;;12.80;;
7080;SDS011;3582;51.506;11.948;2022-11-04T04:42:37;22.45;;;12.13;;
7080;SDS011;3582;51.506;11.948;2022-11-04T04:45:24;19.60;;;13.82;;
7080;SDS011;3582;51.506;11.948;2022-11-04T04:47:52;16.85;;;13.10;;
7080;SDS011;3582;51.506;11.948;2022-11-04T04:50:18;14.32;;;12.15;;
7080;SDS011;3582;51.506;11.948;2022-11-04T04:52:46;16.67;;;12.30;;
7080;SDS011;3582;51.506;11.948;2022-11-04T04:55:13;17.42;;;12.63;;
7080;SDS011;3582;51.506;11.948;2022-11-04T04:57:39;15.23;;;12.30;;
7080;SDS011;3582;51.506;11.948;2022-11-04T05:00:05;20.17;;;14.15;;
7080;SDS011;3582;51.506;11.948;2022-11-04T05:02:32;15.75;;;12.32;;
7080;SDS011;3582;51.506;11.948;2022-11-04T05:04:58;15.52;;;12.25;;
7080;SDS011;3582;51.506;11.948;2022-11-04T05:07:25;19.27;;;12.73;;
7080;SDS011;3582;51.506;11.948;2022-11-04T05:09:51;14.05;;;10.95;;
7080;SDS011;3582;51.506;11.948;2022-11-04T05:12:17;15.75;;;11.82;;
7080;SDS011;3582;51.506;11.948;2022-11-04T05:14:43;13.80;;;11.67;;
7080;SDS011;3582;51.506;11.948;2022-11-04T05:17:09;15.93;;;12.33;;
7080;SDS011;3582;51.506;11.948;2022-11-04T05:19:35;18.47;;;12.37;;
7080;SDS011;3582;51.506;11.948;2022-11-04T05:22:01;17.00;;;12.93;;
7080;SDS011;3582;51.506;11.948;2022-11-04T05:24:27;16.97;;;12.17;;
7080;SDS011;3582;51.506;11.948;2022-11-04T05:26:53;17.67;;;12.35;;
7080;SDS011;3582;51.506;11.948;2022-11-04T05:29:19;17.10;;;12.10;;
7080;SDS011;3582;51.506;11.948;2022-11-04T05:31:45;17.25;;;11.77;;
7080;SDS011;3582;51.506;11.948;2022-11-04T05:34:11;13.53;;;12.13;;
7080;SDS011;3582;51.506;11.948;2022-11-04T05:36:37;17.48;;;11.90;;
7080;SDS011;3582;51.506;11.948;2022-11-04T05:39:03;14.18;;;11.70;;
7080;SDS011;3582;51.506;11.948;2022-11-04T05:41:30;13.38;;;12.13;;
7080;SDS011;3582;51.506;11.948;2022-11-04T05:43:57;13.07;;;11.73;;
7080;SDS011;3582;51.506;11.948;2022-11-04T05:46:23;21.02;;;16.75;;
7080;SDS011;3582;51.506;11.948;2022-11-04T05:48:49;14.55;;;12.82;;
7080;SDS011;3582;51.506;11.948;2022-11-04T05:51:16;13.52;;;11.43;;
7080;SDS011;3582;51.506;11.948;2022-11-04T05:53:42;15.18;;;12.85;;
7080;SDS011;3582;51.506;11.948;2022-11-04T05:56:08;18.80;;;13.88;;
7080;SDS011;3582;51.506;11.948;2022-11-04T05:58:34;19.97;;;13.13;;
7080;SDS011;3582;51.506;11.948;2022-11-04T06:03:45;14.15;;;12.82;;
7080;SDS011;3582;51.506;11.948;2022-11-04T06:06:11;15.43;;;12.80;;
7080;SDS011;3582;51.506;11.948;2022-11-04T06:08:37;15.50;;;11.20;;
7080;SDS011;3582;51.506;11.948;2022-11-04T06:11:03;19.60;;;12.23;;
7080;SDS011;3582;51.506;11.948;2022-11-04T06:13:29;20.23;;;12.93;;
7080;SDS011;3582;51.506;11.948;2022-11-04T06:15:55;20.95;;;13.00;;
7080;SDS011;3582;51.506;11.948;2022-11-04T06:18:21;15.07;;;12.23;;
7080;SDS011;3582;51.506;11.948;2022-11-04T06:20:47;13.88;;;11.30;;
7080;SDS011;3582;51.506;11.948;2022-11-04T06:23:13;16.80;;;12.50;;
7080;SDS011;3582;51.506;11.948;2022-11-04T06:25:39;17.77;;;12.63;;
7080;SDS011;3582;51.506;11.948;2022-11-04T06:28:05;13.37;;;12.00;;
7080;SDS011;3582;51.506;11.948;2022-11-04T06:30:31;14.88;;;13.10;;
7080;SDS011;3582;51.506;11.948;2022-11-04T06:32:57;14.37;;;12.50;;
7080;SDS011;3582;51.506;11.948;2022-11-04T06:35:23;15.10;;;13.53;;
7080;SDS011;3582;51.506;11.948;2022-11-04T06:37:49;15.20;;;13.20;;
7080;SDS011;3582;51.506;11.948;2022-11-04T06:40:15;20.10;;;13.87;;
7080;SDS011;3582;51.506;11.948;2022-11-04T06:42:41;21.57;;;13.37;;
7080;SDS011;3582;51.506;11.948;2022-11-04T06:45:08;19.27;;;13.60;;
7080;SDS011;3582;51.506;11.948;2022-11-04T06:47:35;14.55;;;13.05;;
7080;SDS011;3582;51.506;11.948;2022-11-04T06:50:01;15.27;;;12.87;;
7080;SDS011;3582;51.506;11.948;2022-11-04T06:52:27;13.65;;;12.23;;
7080;SDS011;3582;51.506;11.948;2022-11-04T06:54:53;12.13;;;10.73;;
7080;SDS011;3582;51.506;11.948;2022-11-04T06:57:19;17.97;;;15.13;;
7080;SDS011;3582;51.506;11.948;2022-11-04T06:59:45;13.87;;;12.17;;
7080;SDS011;3582;51.506;11.948;2022-11-04T07:02:11;12.53;;;10.70;;
7080;SDS011;3582;51.506;11.948;2022-11-04T07:04:37;14.17;;;12.00;;
7080;SDS011;3582;51.506;11.948;2022-11-04T07:07:03;12.57;;;11.10;;
7080;SDS011;3582;51.506;11.948;2022-11-04T07:09:29;12.97;;;11.10;;
7080;SDS011;3582;51.506;11.948;2022-11-04T07:11:55;12.10;;;10.47;;
7080;SDS011;3582;51.506;11.948;2022-11-04T07:14:21;12.82;;;11.18;;
7080;SDS011;3582;51.506;11.948;2022-11-04T07:16:50;11.97;;;10.67;;
7080;SDS011;3582;51.506;11.948;2022-11-04T07:19:16;14.57;;;12.10;;
7080;SDS011;3582;51.506;11.948;2022-11-04T07:21:41;13.37;;;11.50;;
7080;SDS011;3582;51.506;11.948;2022-11-04T07:24:07;12.73;;;9.87;;
7080;SDS011;3582;51.506;11.948;2022-11-04T07:26:33;10.73;;;9.63;;
7080;SDS011;3582;51.506;11.948;2022-11-04T07:28:59;12.67;;;9.80;;
7080;SDS011;3582;51.506;11.948;2022-11-04T07:31:26;9.15;;;8.25;;
7080;SDS011;3582;51.506;11.948;2022-11-04T07:33:52;11.35;;;8.05;;
7080;SDS011;3582;51.506;11.948;2022-11-04T07:36:18;12.07;;;8.98;;
7080;SDS011;3582;51.506;11.948;2022-11-04T07:38:44;7.88;;;7.07;;
7080;SDS011;3582;51.506;11.948;2022-11-04T07:41:11;7.68;;;6.97;;
7080;SDS011;3582;51.506;11.948;2022-11-04T07:43:37;8.80;;;7.90;;
7080;SDS011;3582;51.506;11.948;2022-11-04T07:46:08;8.23;;;7.43;;
7080;SDS011;3582;51.506;11.948;2022-11-04T07:48:35;8.40;;;7.63;;
7080;SDS011;3582;51.506;11.948;2022-11-04T07:51:01;7.30;;;6.70;;
7080;SDS011;3582;51.506;11.948;2022-11-04T07:53:28;7.82;;;6.90;;
7080;SDS011;3582;51.506;11.948;2022-11-04T07:55:54;7.10;;;6.40;;
7080;SDS011;3582;51.506;11.948;2022-11-04T07:58:20;10.02;;;8.38;;
7080;SDS011;3582;51.506;11.948;2022-11-04T08:00:47;9.57;;;8.68;;
7080;SDS011;3582;51.506;11.948;2022-11-04T08:03:13;8.53;;;7.67;;
7080;SDS011;3582;51.506;11.948;2022-11-04T08:05:39;7.53;;;6.53;;
7080;SDS011;3582;51.506;11.948;2022-11-04T08:08:05;8.67;;;5.60;;
7080;SDS011;3582;51.506;11.948;2022-11-04T08:10:31;7.22;;;6.53;;
7080;SDS011;3582;51.506;11.948;2022-11-04T08:12:57;6.68;;;5.72;;
7080;SDS011;3582;51.506;11.948;2022-11-04T08:15:23;6.33;;;5.80;;
7080;SDS011;3582;51.506;11.948;2022-11-04T08:17:49;7.97;;;6.40;;
7080;SDS011;3582;51.506;11.948;2022-11-04T08:20:15;6.53;;;5.83;;
7080;SDS011;3582;51.506;11.948;2022-11-04T08:22:41;9.37;;;6.00;;
7080;SDS011;3582;51.506;11.948;2022-11-04T08:25:07;6.33;;;5.00;;
7080;SDS011;3582;51.506;11.948;2022-11-04T08:27:37;6.13;;;5.17;;
7080;SDS011;3582;51.506;11.948;2022-11-04T08:30:03;7.10;;;6.03;;
7080;SDS011;3582;51.506;11.948;2022-11-04T08:32:29;6.65;;;5.28;;
7080;SDS011;3582;51.506;11.948;2022-11-04T08:34:55;7.87;;;5.57;;
7080;SDS011;3582;51.506;11.948;2022-11-04T08:37:21;7.70;;;6.17;;
7080;SDS011;3582;51.506;11.948;2022-11-04T08:39:47;21.33;;;6.27;;
7080;SDS011;3582;51.506;11.948;2022-11-04T08:42:13;5.60;;;4.13;;
7080;SDS011;3582;51.506;11.948;2022-11-04T08:44:39;5.17;;;4.67;;
7080;SDS011;3582;51.506;11.948;2022-11-04T08:47:05;5.83;;;5.23;;
7080;SDS011;3582;51.506;11.948;2022-11-04T08:49:31;4.60;;;4.20;;
7080;SDS011;3582;51.506;11.948;2022-11-04T08:51:57;5.40;;;4.90;;
7080;SDS011;3582;51.506;11.948;2022-11-04T08:54:24;4.50;;;4.10;;
7080;SDS011;3582;51.506;11.948;2022-11-04T08:56:51;4.65;;;3.83;;
7080;SDS011;3582;51.506;11.948;2022-11-04T08:59:17;4.18;;;3.88;;
7080;SDS011;3582;51.506;11.948;2022-11-04T09:01:43;7.47;;;4.93;;
7080;SDS011;3582;51.506;11.948;2022-11-04T09:04:10;10.40;;;5.20;;
7080;SDS011;3582;51.506;11.948;2022-11-04T09:06:37;4.50;;;3.90;;
7080;SDS011;3582;51.506;11.948;2022-11-04T09:09:04;5.00;;;4.60;;
7080;SDS011;3582;51.506;11.948;2022-11-04T09:11:33;4.80;;;4.20;;
7080;SDS011;3582;51.506;11.948;2022-11-04T09:14:01;4.73;;;4.27;;
7080;SDS011;3582;51.506;11.948;2022-11-04T09:16:28;4.93;;;4.53;;
7080;SDS011;3582;51.506;11.948;2022-11-04T09:18:55;5.20;;;4.50;;
7080;SDS011;3582;51.506;11.948;2022-11-04T09:21:21;5.30;;;4.80;;
7080;SDS011;3582;51.506;11.948;2022-11-04T09:23:48;5.97;;;5.27;;
7080;SDS011;3582;51.506;11.948;2022-11-04T09:26:15;5.60;;;5.10;;
7080;SDS011;3582;51.506;11.948;2022-11-04T09:28:41;5.80;;;5.20;;
7080;SDS011;3582;51.506;11.948;2022-11-04T09:31:08;4.60;;;3.97;;
7080;SDS011;3582;51.506;11.948;2022-11-04T09:33:34;6.90;;;3.73;;
7080;SDS011;3582;51.506;11.948;2022-11-04T09:36:01;4.30;;;3.90;;
7080;SDS011;3582;51.506;11.948;2022-11-04T09:38:28;4.53;;;3.50;;
7080;SDS011;3582;51.506;11.948;2022-11-04T09:40:54;8.23;;;4.80;;
7080;SDS011;3582;51.506;11.948;2022-11-04T09:46:01;4.03;;;3.27;;
7080;SDS011;3582;51.506;11.948;2022-11-04T09:48:31;4.50;;;3.93;;
7080;SDS011;3582;51.506;11.948;2022-11-04T09:50:59;6.33;;;4.70;;
7080;SDS011;3582;51.506;11.948;2022-11-04T09:53:34;4.20;;;3.83;;
7080;SDS011;3582;51.506;11.948;2022-11-04T09:56:04;4.03;;;3.73;;
7080;SDS011;3582;51.506;11.948;2022-11-04T09:58:35;6.23;;;4.93;;
7080;SDS011;3582;51.506;11.948;2022-11-04T10:01:04;7.47;;;4.53;;
7080;SDS011;3582;51.506;11.948;2022-11-04T10:03:42;4.57;;;3.90;;
7080;SDS011;3582;51.506;11.948;2022-11-04T10:08:51;5.73;;;5.13;;
7080;SDS011;3582;51.506;11.948;2022-11-04T10:21:46;5.53;;;4.70;;
7080;SDS011;3582;51.506;11.948;2022-11-04T10:29:16;5.03;;;4.53;;
7080;SDS011;3582;51.506;11.948;2022-11-04T10:31:44;5.40;;;4.47;;
7080;SDS011;3582;51.506;11.948;2022-11-04T10:34:14;7.23;;;4.30;;
7080;SDS011;3582;51.506;11.948;2022-11-04T10:36:42;4.43;;;3.53;;
7080;SDS011;3582;51.506;11.948;2022-11-04T10:39:14;8.77;;;4.43;;
7080;SDS011;3582;51.506;11.948;2022-11-04T10:41:42;5.47;;;4.07;;
7080;SDS011;3582;51.506;11.948;2022-11-04T10:44:11;8.97;;;4.30;;
7080;SDS011;3582;51.506;11.948;2022-11-04T10:51:50;7.17;;;3.50;;
7080;SDS011;3582;51.506;11.948;2022-11-04T10:54:16;8.67;;;3.73;;
7080;SDS011;3582;51.506;11.948;2022-11-04T10:56:49;5.90;;;3.33;;
7080;SDS011;3582;51.506;11.948;2022-11-04T11:01:47;4.23;;;3.93;;
7080;SDS011;3582;51.506;11.948;2022-11-04T11:04:22;3.40;;;3.10;;
7080;SDS011;3582;51.506;11.948;2022-11-04T11:06:49;3.60;;;3.30;;
7080;SDS011;3582;51.506;11.948;2022-11-04T11:09:20;5.97;;;3.70;;
7080;SDS011;3582;51.506;11.948;2022-11-04T11:11:53;4.93;;;3.57;;
7080;SDS011;3582;51.506;11.948;2022-11-04T11:22:36;6.07;;;3.17;;
7080;SDS011;3582;51.506;11.948;2022-11-04T11:25:12;3.53;;;3.10;;
7080;SDS011;3582;51.506;11.948;2022-11-04T11:27:39;5.53;;;3.20;;
7080;SDS011;3582;51.506;11.948;2022-11-04T11:30:06;5.60;;;3.50;;
7080;SDS011;3582;51.506;11.948;2022-11-04T11:32:43;3.10;;;2.60;;
7080;SDS011;3582;51.506;11.948;2022-11-04T11:35:14;2.67;;;2.47;;
7080;SDS011;3582;51.506;11.948;2022-11-04T11:37:42;7.30;;;4.00;;
7080;SDS011;3582;51.506;11.948;2022-11-04T11:40:23;4.93;;;3.03;;
7080;SDS011;3582;51.506;11.948;2022-11-04T11:42:49;4.18;;;3.83;;
7080;SDS011;3582;51.506;11.948;2022-11-04T11:45:15;3.80;;;3.40;;
7080;SDS011;3582;51.506;11.948;2022-11-04T11:47:41;4.73;;;3.83;;
7080;SDS011;3582;51.506;11.948;2022-11-04T11:50:14;3.90;;;3.50;;
7080;SDS011;3582;51.506;11.948;2022-11-04T11:52:41;5.00;;;3.83;;
7080;SDS011;3582;51.506;11.948;2022-11-04T11:55:23;10.60;;;3.73;;
7080;SDS011;3582;51.506;11.948;2022-11-04T11:58:11;4.30;;;3.88;;
7080;SDS011;3582;51.506;11.948;2022-11-04T12:00:41;3.20;;;3.00;;
7080;SDS011;3582;51.506;11.948;2022-11-04T12:03:18;2.35;;;2.17;;
7080;SDS011;3582;51.506;11.948;2022-11-04T12:05:58;22.77;;;4.93;;
7080;SDS011;3582;51.506;11.948;2022-11-04T12:13:36;2.00;;;1.90;;
7080;SDS011;3582;51.506;11.948;2022-11-04T12:21:31;3.10;;;2.40;;
7080;SDS011;3582;51.506;11.948;2022-11-04T12:24:04;3.80;;;2.80;;
7080;SDS011;3582;51.506;11.948;2022-11-04T12:26:38;4.33;;;3.00;;
7080;SDS011;3582;51.506;11.948;2022-11-04T12:34:25;5.57;;;3.00;;
7080;SDS011;3582;51.506;11.948;2022-11-04T12:45:01;2.93;;;1.87;;
7080;SDS011;3582;51.506;11.948;2022-11-04T12:54:59;8.47;;;2.73;;
7080;SDS011;3582;51.506;11.948;2022-11-04T13:00:02;1.90;;;1.80;;
7080;SDS011;3582;51.506;11.948;2022-11-04T13:02:35;2.20;;;2.00;;
7080;SDS011;3582;51.506;11.948;2022-11-04T13:07:34;3.30;;;2.10;;
7080;SDS011;3582;51.506;11.948;2022-11-04T13:10:05;4.50;;;2.20;;
7080;SDS011;3582;51.506;11.948;2022-11-04T13:12:35;6.50;;;1.47;;
7080;SDS011;3582;51.506;11.948;2022-11-04T13:17:32;3.87;;;1.60;;
7080;SDS011;3582;51.506;11.948;2022-11-04T13:20:00;4.70;;;2.07;;
7080;SDS011;3582;51.506;11.948;2022-11-04T13:22:30;3.67;;;2.20;;
7080;SDS011;3582;51.506;11.948;2022-11-04T13:25:02;4.30;;;1.77;;
7080;SDS011;3582;51.506;11.948;2022-11-04T13:27:35;2.13;;;2.00;;
7080;SDS011;3582;51.506;11.948;2022-11-04T13:30:06;5.60;;;2.20;;
7080;SDS011;3582;51.506;11.948;2022-11-04T13:32:39;2.00;;;1.53;;
7080;SDS011;3582;51.506;11.948;2022-11-04T13:37:58;3.07;;;2.57;;
7080;SDS011;3582;51.506;11.948;2022-11-04T13:40:27;3.50;;;1.93;;
7080;SDS011;3582;51.506;11.948;2022-11-04T13:45:48;5.20;;;3.50;;
7080;SDS011;3582;51.506;11.948;2022-11-04T13:48:16;4.93;;;1.90;;
7080;SDS011;3582;51.506;11.948;2022-11-04T13:50:42;6.87;;;2.87;;
7080;SDS011;3582;51.506;11.948;2022-11-04T13:53:09;3.73;;;3.03;;
7080;SDS011;3582;51.506;11.948;2022-11-04T13:55:36;4.83;;;2.43;;
7080;SDS011;3582;51.506;11.948;2022-11-04T13:58:16;2.60;;;2.40;;
7080;SDS011;3582;51.506;11.948;2022-11-04T14:01:01;5.73;;;3.33;;
7080;SDS011;3582;51.506;11.948;2022-11-04T14:06:03;13.30;;;2.93;;
7080;SDS011;3582;51.506;11.948;2022-11-04T14:08:30;7.53;;;2.87;;
7080;SDS011;3582;51.506;11.948;2022-11-04T14:10:57;5.53;;;3.73;;
7080;SDS011;3582;51.506;11.948;2022-11-04T14:16:02;9.43;;;2.20;;
7080;SDS011;3582;51.506;11.948;2022-11-04T14:18:29;2.60;;;2.40;;
7080;SDS011;3582;51.506;11.948;2022-11-04T14:23:55;5.73;;;3.47;;
7080;SDS011;3582;51.506;11.948;2022-11-04T14:26:23;5.20;;;2.43;;
7080;SDS011;3582;51.506;11.948;2022-11-04T14:29:11;3.60;;;2.13;;
7080;SDS011;3582;51.506;11.948;2022-11-04T14:31:40;2.80;;;2.17;;
7080;SDS011;3582;51.506;11.948;2022-11-04T14:34:15;5.33;;;3.13;;
7080;SDS011;3582;51.506;11.948;2022-11-04T14:36:48;3.23;;;2.27;;
7080;SDS011;3582;51.506;11.948;2022-11-04T14:39:23;7.90;;;3.37;;
7080;SDS011;3582;51.506;11.948;2022-11-04T14:41:53;3.93;;;2.20;;
7080;SDS011;3582;51.506;11.948;2022-11-04T14:44:36;2.80;;;2.70;;
7080;SDS011;3582;51.506;11.948;2022-11-04T14:47:12;5.90;;;2.53;;
7080;SDS011;3582;51.506;11.948;2022-11-04T14:49:45;2.17;;;2.00;;
7080;SDS011;3582;51.506;11.948;2022-11-04T14:52:15;5.43;;;2.33;;
7080;SDS011;3582;51.506;11.948;2022-11-04T14:54:41;4.40;;;2.87;;
7080;SDS011;3582;51.506;11.948;2022-11-04T14:59:40;10.15;;;4.25;;
7080;SDS011;3582;51.506;11.948;2022-11-04T15:02:26;8.80;;;4.80;;
7080;SDS011;3582;51.506;11.948;2022-11-04T15:04:57;3.97;;;3.50;;
7080;SDS011;3582;51.506;11.948;2022-11-04T15:07:25;9.77;;;4.73;;
7080;SDS011;3582;51.506;11.948;2022-11-04T15:09:51;7.77;;;4.70;;
7080;SDS011;3582;51.506;11.948;2022-11-04T15:12:17;9.50;;;5.73;;
7080;SDS011;3582;51.506;11.948;2022-11-04T15:15:19;11.27;;;5.60;;
7080;SDS011;3582;51.506;11.948;2022-11-04T15:17:48;5.55;;;5.05;;
7080;SDS011;3582;51.506;11.948;2022-11-04T15:20:20;4.00;;;3.70;;
7080;SDS011;3582;51.506;11.948;2022-11-04T15:22:47;5.97;;;4.17;;
7080;SDS011;3582;51.506;11.948;2022-11-04T15:25:14;7.33;;;4.60;;
7080;SDS011;3582;51.506;11.948;2022-11-04T15:27:40;7.83;;;3.70;;
7080;SDS011;3582;51.506;11.948;2022-11-04T15:30:15;12.03;;;4.20;;
7080;SDS011;3582;51.506;11.948;2022-11-04T15:32:53;6.77;;;3.90;;
7080;SDS011;3582;51.506;11.948;2022-11-04T15:35:19;4.82;;;4.35;;
7080;SDS011;3582;51.506;11.948;2022-11-04T15:37:46;6.30;;;5.35;;
7080;SDS011;3582;51.506;11.948;2022-11-04T15:40:13;7.78;;;4.72;;
7080;SDS011;3582;51.506;11.948;2022-11-04T15:42:43;28.00;;;25.73;;
7080;SDS011;3582;51.506;11.948;2022-11-04T15:50:39;6.15;;;5.53;;
7080;SDS011;3582;51.506;11.948;2022-11-04T15:53:07;5.88;;;5.30;;
7080;SDS011;3582;51.506;11.948;2022-11-04T15:55:33;8.73;;;7.10;;
7080;SDS011;3582;51.506;11.948;2022-11-04T15:58:02;7.63;;;5.30;;
7080;SDS011;3582;51.506;11.948;2022-11-04T16:00:28;15.15;;;5.78;;
7080;SDS011;3582;51.506;11.948;2022-11-04T16:02:58;10.20;;;5.70;;
7080;SDS011;3582;51.506;11.948;2022-11-04T16:05:28;8.05;;;7.25;;
7080;SDS011;3582;51.506;11.948;2022-11-04T16:07:55;10.13;;;6.38;;
7080;SDS011;3582;51.506;11.948;2022-11-04T16:10:38;6.85;;;6.25;;
7080;SDS011;3582;51.506;11.948;2022-11-04T16:15:43;7.18;;;6.35;;
7080;SDS011;3582;51.506;11.948;2022-11-04T16:18:23;7.50;;;5.85;;
7080;SDS011;3582;51.506;11.948;2022-11-04T16:20:51;14.52;;;7.60;;
7080;SDS011;3582;51.506;11.948;2022-11-04T16:23:19;7.55;;;6.78;;
7080;SDS011;3582;51.506;11.948;2022-11-04T16:25:46;11.18;;;10.23;;
7080;SDS011;3582;51.506;11.948;2022-11-04T16:28:19;10.65;;;7.82;;
7080;SDS011;3582;51.506;11.948;2022-11-04T16:31:48;10.10;;;9.15;;
7080;SDS011;3582;51.506;11.948;2022-11-04T16:33:40;8.80;;;7.90;;
7080;SDS011;3582;51.506;11.948;2022-11-04T16:36:11;13.43;;;9.90;;
7080;SDS011;3582;51.506;11.948;2022-11-04T16:38:37;11.00;;;9.85;;
7080;SDS011;3582;51.506;11.948;2022-11-04T16:41:07;14.03;;;8.17;;
7080;SDS011;3582;51.506;11.948;2022-11-04T16:43:33;10.93;;;9.82;;
7080;SDS011;3582;51.506;11.948;2022-11-04T16:46:05;15.45;;;10.45;;
7080;SDS011;3582;51.506;11.948;2022-11-04T16:48:31;13.53;;;9.13;;
7080;SDS011;3582;51.506;11.948;2022-11-04T16:50:57;11.15;;;9.02;;
7080;SDS011;3582;51.506;11.948;2022-11-04T16:53:23;18.17;;;10.57;;
7080;SDS011;3582;51.506;11.948;2022-11-04T16:55:49;12.33;;;10.33;;
7080;SDS011;3582;51.506;11.948;2022-11-04T16:58:16;11.48;;;10.13;;
7080;SDS011;3582;51.506;11.948;2022-11-04T17:00:42;12.27;;;10.55;;
7080;SDS011;3582;51.506;11.948;2022-11-04T17:03:15;16.00;;;13.00;;
7080;SDS011;3582;51.506;11.948;2022-11-04T17:05:46;12.88;;;11.60;;
7080;SDS011;3582;51.506;11.948;2022-11-04T17:08:12;13.50;;;11.50;;
7080;SDS011;3582;51.506;11.948;2022-11-04T17:10:38;16.45;;;11.70;;
7080;SDS011;3582;51.506;11.948;2022-11-04T17:13:04;20.98;;;12.82;;